createdAt,value
2023-02-17T00:00:59.372Z,2.92
2023-02-17T00:03:26.366Z,2.40
2023-02-17T00:05:56.180Z,2.25
2023-02-17T00:08:22.908Z,1.98
2023-02-17T00:10:57.896Z,2.65
2023-02-17T00:13:24.795Z,2.22
2023-02-17T00:15:51.737Z,2.38
2023-02-17T00:18:18.474Z,2.70
2023-02-17T00:20:45.225Z,2.05
2023-02-17T00:23:11.989Z,1.50
2023-02-17T00:25:39.134Z,1.60
2023-02-17T00:28:06.061Z,2.47
2023-02-17T00:30:33.236Z,1.50
2023-02-17T00:33:05.239Z,2.42
2023-02-17T00:35:31.988Z,2.17
2023-02-17T00:37:58.658Z,1.87
2023-02-17T00:40:25.313Z,1.95
2023-02-17T00:42:54.781Z,1.88
2023-02-17T00:45:21.576Z,1.85
2023-02-17T00:47:48.408Z,1.70
2023-02-17T00:50:15.367Z,2.00
2023-02-17T00:52:42.102Z,2.28
2023-02-17T00:55:08.976Z,2.08
2023-02-17T00:57:35.670Z,1.33
2023-02-17T01:00:02.763Z,1.90
2023-02-17T01:02:29.461Z,1.85
2023-02-17T01:04:56.109Z,1.75
2023-02-17T01:07:22.824Z,1.38
2023-02-17T01:09:49.500Z,1.40
2023-02-17T01:12:16.414Z,1.65
2023-02-17T01:14:43.858Z,1.60
2023-02-17T01:17:10.700Z,1.80
2023-02-17T01:19:37.401Z,1.63
2023-02-17T01:22:04.194Z,1.55
2023-02-17T01:24:30.913Z,1.55
2023-02-17T01:26:57.606Z,1.37
2023-02-17T01:29:24.625Z,1.50
2023-02-17T01:31:52.163Z,1.60
2023-02-17T01:34:18.857Z,1.20
2023-02-17T01:36:45.611Z,2.03
2023-02-17T01:39:14.586Z,1.88
2023-02-17T01:41:44.683Z,1.27
2023-02-17T01:44:21.667Z,1.23
2023-02-17T01:46:50.682Z,2.05
2023-02-17T01:49:32.343Z,1.73
2023-02-17T01:55:02.584Z,1.17
2023-02-17T01:57:32.958Z,1.42
2023-02-17T01:59:59.952Z,1.58
2023-02-17T02:02:31.035Z,1.20
2023-02-17T02:04:58.025Z,1.80
2023-02-17T02:07:32.261Z,1.50
2023-02-17T02:09:59.826Z,1.73
2023-02-17T02:12:31.775Z,1.35
2023-02-17T02:15:03.252Z,1.53
2023-02-17T02:17:41.410Z,1.42
2023-02-17T02:20:23.229Z,1.50
2023-02-17T02:22:59.002Z,1.08
2023-02-17T02:25:40.059Z,1.73
2023-02-17T02:28:25.298Z,1.33
2023-02-17T02:31:01.047Z,1.70
2023-02-17T02:33:44.919Z,1.60
2023-02-17T02:36:23.599Z,1.35
2023-02-17T02:38:59.851Z,1.67
2023-02-17T02:41:34.678Z,1.10
2023-02-17T02:44:05.321Z,1.58
2023-02-17T02:46:32.074Z,1.42
2023-02-17T02:48:59.477Z,1.60
2023-02-17T02:51:47.056Z,1.38
2023-02-17T02:54:37.055Z,1.20
2023-02-17T02:57:12.639Z,1.47
2023-02-17T02:59:48.409Z,1.50
2023-02-17T03:02:33.634Z,1.70
2023-02-17T03:05:11.064Z,1.23
2023-02-17T03:07:40.564Z,1.20
2023-02-17T03:10:07.770Z,1.48
2023-02-17T03:12:37.961Z,1.70
2023-02-17T03:15:15.630Z,1.52
2023-02-17T03:17:42.352Z,1.70
2023-02-17T03:20:13.972Z,1.42
2023-02-17T03:22:44.836Z,1.33
2023-02-17T03:25:11.687Z,1.17
2023-02-17T03:27:38.505Z,1.38
2023-02-17T03:30:05.896Z,1.70
2023-02-17T03:32:32.851Z,1.52
2023-02-17T03:34:59.568Z,1.35
2023-02-17T03:37:26.307Z,1.38
2023-02-17T03:39:53.054Z,1.20
2023-02-17T03:42:20.310Z,1.30
2023-02-17T03:44:47.070Z,1.40
2023-02-17T03:47:13.834Z,1.48
2023-02-17T03:49:40.525Z,1.75
2023-02-17T03:52:07.287Z,1.20
2023-02-17T03:54:34.320Z,1.08
2023-02-17T03:57:03.510Z,1.33
2023-02-17T03:59:33.081Z,0.93
2023-02-17T04:01:59.749Z,1.33
2023-02-17T04:04:26.546Z,0.85
2023-02-17T04:06:56.299Z,0.90
2023-02-17T04:09:23.022Z,1.25
2023-02-17T04:11:49.718Z,1.50
2023-02-17T04:14:16.381Z,0.90
2023-02-17T04:16:46.277Z,1.20
2023-02-17T04:19:13.042Z,1.02
2023-02-17T04:21:39.788Z,1.30
2023-02-17T04:24:06.694Z,1.00
2023-02-17T04:26:33.495Z,1.30
2023-02-17T04:29:04.385Z,1.47
2023-02-17T04:31:31.383Z,1.00
2023-02-17T04:34:00.377Z,1.25
2023-02-17T04:36:27.261Z,1.33
2023-02-17T04:38:53.968Z,1.20
2023-02-17T04:41:20.610Z,0.80
2023-02-17T04:43:47.421Z,1.07
2023-02-17T04:46:14.296Z,1.30
2023-02-17T04:48:43.954Z,1.23
2023-02-17T04:51:10.683Z,0.98
2023-02-17T04:53:37.410Z,0.57
2023-02-17T04:56:06.888Z,1.05
2023-02-17T04:58:33.716Z,1.27
2023-02-17T05:01:01.164Z,0.70
2023-02-17T05:03:28.053Z,1.30
2023-02-17T05:05:54.718Z,1.30
2023-02-17T05:08:21.665Z,1.00
2023-02-17T05:10:50.095Z,0.95
2023-02-17T05:13:16.851Z,1.02
2023-02-17T05:15:44.861Z,1.20
2023-02-17T05:18:11.994Z,0.63
2023-02-17T05:20:38.861Z,0.73
2023-02-17T05:23:06.038Z,1.27
2023-02-17T05:25:32.899Z,1.00
2023-02-17T05:27:59.591Z,0.93
2023-02-17T05:30:26.388Z,0.80
2023-02-17T05:32:53.163Z,1.02
2023-02-17T05:35:19.927Z,0.80
2023-02-17T05:37:46.620Z,0.90
2023-02-17T05:40:13.518Z,1.13
2023-02-17T05:42:40.189Z,0.82
2023-02-17T05:45:07.389Z,1.20
2023-02-17T05:47:35.545Z,0.63
2023-02-17T05:50:03.105Z,0.98
2023-02-17T05:52:36.968Z,1.00
2023-02-17T05:55:04.789Z,1.23
2023-02-17T05:57:34.547Z,0.80
2023-02-17T06:00:01.253Z,0.77
2023-02-17T06:02:27.995Z,1.23
2023-02-17T06:04:54.722Z,0.90
2023-02-17T06:07:24.267Z,1.05
2023-02-17T06:09:50.967Z,0.73
2023-02-17T06:12:17.602Z,0.50
2023-02-17T06:14:46.711Z,0.50
2023-02-17T06:17:13.461Z,0.47
2023-02-17T06:19:40.176Z,0.80
2023-02-17T06:22:07.145Z,1.00
2023-02-17T06:24:35.944Z,0.40
2023-02-17T06:27:02.616Z,0.52
2023-02-17T06:29:29.426Z,0.40
2023-02-17T06:31:56.398Z,0.55
2023-02-17T06:34:23.391Z,0.43
2023-02-17T06:36:50.135Z,0.60
2023-02-17T06:39:16.865Z,1.05
2023-02-17T06:41:43.604Z,0.75
2023-02-17T06:44:10.353Z,0.93
2023-02-17T06:46:37.523Z,0.47
2023-02-17T06:49:04.810Z,0.55
2023-02-17T06:51:31.645Z,0.70
2023-02-17T06:53:58.435Z,0.60
2023-02-17T06:56:27.371Z,0.90
2023-02-17T06:58:54.280Z,0.82
2023-02-17T07:01:26.100Z,0.28
2023-02-17T07:03:55.344Z,1.08
2023-02-17T07:06:23.472Z,0.77
2023-02-17T07:08:50.518Z,0.80
2023-02-17T07:11:18.055Z,0.87
2023-02-17T07:13:45.210Z,0.40
2023-02-17T07:16:13.848Z,0.47
2023-02-17T07:18:41.060Z,0.68
2023-02-17T07:21:09.271Z,0.40
2023-02-17T07:23:36.894Z,0.40
2023-02-17T07:26:05.545Z,0.40
2023-02-17T07:28:32.447Z,0.60
2023-02-17T07:31:05.435Z,0.50
2023-02-17T07:33:32.418Z,0.60
2023-02-17T07:35:59.158Z,0.88
2023-02-17T07:38:28.921Z,0.22
2023-02-17T07:40:55.609Z,0.55
2023-02-17T07:43:22.357Z,0.73
2023-02-17T07:45:49.181Z,0.40
2023-02-17T07:48:15.927Z,0.40
2023-02-17T07:50:42.677Z,0.50
2023-02-17T07:53:09.370Z,0.50
2023-02-17T07:55:36.127Z,0.65
2023-02-17T07:58:02.762Z,0.63
2023-02-17T08:00:29.495Z,0.20
2023-02-17T08:02:56.150Z,0.40
2023-02-17T08:05:23.018Z,0.52
2023-02-17T08:08:10.102Z,0.37
2023-02-17T08:10:56.772Z,0.50
2023-02-17T08:13:25.355Z,0.47
2023-02-17T08:15:52.088Z,0.30
2023-02-17T08:18:18.910Z,0.53
2023-02-17T08:20:48.357Z,0.30
2023-02-17T08:23:15.252Z,0.20
2023-02-17T08:25:42.110Z,0.50
2023-02-17T08:28:13.704Z,0.20
2023-02-17T08:30:40.932Z,0.40
2023-02-17T08:33:11.206Z,0.50
2023-02-17T08:35:37.928Z,0.30
2023-02-17T08:38:07.461Z,0.52
2023-02-17T08:40:34.130Z,0.60
2023-02-17T08:43:03.229Z,0.45
2023-02-17T08:45:30.609Z,0.57
2023-02-17T08:48:08.715Z,0.40
2023-02-17T08:50:35.730Z,0.63
2023-02-17T08:53:02.474Z,0.63
2023-02-17T08:55:43.988Z,0.70
2023-02-17T08:58:15.217Z,0.50
2023-02-17T09:00:44.722Z,0.95
2023-02-17T09:03:11.664Z,0.50
2023-02-17T09:05:38.450Z,0.50
2023-02-17T09:08:05.502Z,0.63
2023-02-17T09:10:32.471Z,0.55
2023-02-17T09:12:59.302Z,0.50
2023-02-17T09:15:25.983Z,0.80
2023-02-17T09:17:52.669Z,0.98
2023-02-17T09:20:25.161Z,0.68
2023-02-17T09:22:52.765Z,0.52
2023-02-17T09:25:19.500Z,0.55
2023-02-17T09:27:46.379Z,0.93
2023-02-17T09:30:13.691Z,0.63
2023-02-17T09:32:44.228Z,1.10
2023-02-17T09:35:18.641Z,0.80
2023-02-17T09:37:45.337Z,0.80
2023-02-17T09:40:36.399Z,1.07
2023-02-17T09:43:03.365Z,0.80
2023-02-17T09:45:36.002Z,1.17
2023-02-17T09:48:13.290Z,1.00
2023-02-17T09:50:45.573Z,0.68
2023-02-17T09:53:37.591Z,1.13
2023-02-17T09:56:08.658Z,1.00
2023-02-17T09:58:47.171Z,0.70
2023-02-17T10:01:20.930Z,0.63
2023-02-17T10:03:58.514Z,1.00
2023-02-17T10:06:34.569Z,0.73
2023-02-17T10:09:19.655Z,0.80
2023-02-17T10:12:03.139Z,0.93
2023-02-17T10:14:48.056Z,0.85
2023-02-17T10:17:40.069Z,0.80
2023-02-17T10:20:16.131Z,0.70
2023-02-17T10:22:46.266Z,0.70
2023-02-17T10:25:33.880Z,0.77
2023-02-17T10:28:15.655Z,0.75
2023-02-17T10:30:47.462Z,0.63
2023-02-17T10:33:29.640Z,1.17
2023-02-17T10:36:04.548Z,0.90
2023-02-17T10:38:45.622Z,0.87
2023-02-17T10:41:17.657Z,0.40
2023-02-17T10:43:48.129Z,0.70
2023-02-17T10:46:17.813Z,1.10
2023-02-17T10:48:55.640Z,0.70
2023-02-17T10:51:32.116Z,0.60
2023-02-17T10:54:08.134Z,0.50
2023-02-17T10:56:40.363Z,0.60
2023-02-17T10:59:32.472Z,0.73
2023-02-17T11:02:20.299Z,0.82
2023-02-17T11:04:52.522Z,0.77
2023-02-17T11:07:26.944Z,0.98
2023-02-17T11:10:00.705Z,0.70
2023-02-17T11:12:49.768Z,0.50
2023-02-17T11:15:34.391Z,0.30
2023-02-17T11:18:08.938Z,0.50
2023-02-17T11:20:36.426Z,0.40
2023-02-17T11:23:20.469Z,0.90
2023-02-17T11:26:15.985Z,0.90
2023-02-17T11:28:42.729Z,0.60
2023-02-17T11:31:23.456Z,0.70
2023-02-17T11:33:50.197Z,0.70
2023-02-17T11:36:29.258Z,0.63
2023-02-17T11:38:56.919Z,0.90
2023-02-17T11:41:24.160Z,0.98
2023-02-17T11:43:55.830Z,0.77
2023-02-17T11:46:35.095Z,0.90
2023-02-17T11:49:13.672Z,0.80
2023-02-17T11:52:01.335Z,0.75
2023-02-17T11:54:58.734Z,0.50
2023-02-17T11:57:45.714Z,0.90
2023-02-17T12:00:20.332Z,0.43
2023-02-17T12:03:05.605Z,0.40
2023-02-17T12:05:54.895Z,0.65
2023-02-17T12:08:43.845Z,0.38
2023-02-17T12:11:38.651Z,0.30
2023-02-17T12:14:27.077Z,0.30
2023-02-17T12:17:15.625Z,0.33
2023-02-17T12:20:13.055Z,0.30
2023-02-17T12:22:53.228Z,0.38
2023-02-17T12:25:27.270Z,0.40
2023-02-17T12:28:15.326Z,0.30
2023-02-17T12:31:29.667Z,0.47
2023-02-17T12:34:04.248Z,0.30
2023-02-17T12:36:36.682Z,0.30
2023-02-17T12:39:30.624Z,0.20
2023-02-17T12:42:35.085Z,0.13
2023-02-17T12:45:07.048Z,0.38
2023-02-17T12:48:05.877Z,0.20
2023-02-17T12:50:41.451Z,0.20
2023-02-17T12:53:36.557Z,0.40
2023-02-17T12:56:25.585Z,0.40
2023-02-17T12:58:56.444Z,0.20
2023-02-17T13:01:29.105Z,0.33
2023-02-17T13:03:58.893Z,0.20
2023-02-17T13:06:46.313Z,0.40
2023-02-17T13:09:35.959Z,0.30
2023-02-17T13:12:18.358Z,0.40
2023-02-17T13:14:48.406Z,0.40
2023-02-17T13:17:31.533Z,0.40
2023-02-17T13:20:28.884Z,0.40
2023-02-17T13:23:12.240Z,0.50
2023-02-17T13:25:39.294Z,0.40
2023-02-17T13:28:33.363Z,0.80
2023-02-17T13:31:20.474Z,0.20
2023-02-17T13:33:52.574Z,0.40
2023-02-17T13:36:33.375Z,0.50
2023-02-17T13:39:26.001Z,0.47
2023-02-17T13:41:57.822Z,0.60
2023-02-17T13:44:31.980Z,0.30
2023-02-17T13:47:21.258Z,0.30
2023-02-17T13:49:56.822Z,0.63
2023-02-17T13:52:26.177Z,0.47
2023-02-17T13:55:02.167Z,0.40
2023-02-17T13:57:31.406Z,0.70
2023-02-17T14:00:10.829Z,0.30
2023-02-17T14:02:56.070Z,0.40
2023-02-17T14:05:34.522Z,0.40
2023-02-17T14:08:07.402Z,0.40
2023-02-17T14:10:34.726Z,0.50
2023-02-17T14:13:01.508Z,0.50
2023-02-17T14:15:29.535Z,0.60
2023-02-17T14:17:56.481Z,0.40
2023-02-17T14:20:41.479Z,0.47
2023-02-17T14:23:13.791Z,0.57
2023-02-17T14:25:44.878Z,0.60
2023-02-17T14:28:26.335Z,0.50
2023-02-17T14:30:53.721Z,0.57
2023-02-17T14:33:23.640Z,0.47
2023-02-17T14:35:56.448Z,0.40
2023-02-17T14:38:32.496Z,0.60
2023-02-17T14:41:00.952Z,0.40
2023-02-17T14:43:28.084Z,0.83
2023-02-17T14:45:54.855Z,0.50
2023-02-17T14:48:27.385Z,0.60
2023-02-17T14:50:56.675Z,0.40
2023-02-17T14:53:26.804Z,0.50
2023-02-17T14:56:07.655Z,0.52
2023-02-17T14:58:34.765Z,0.50
2023-02-17T15:01:02.458Z,0.50
2023-02-17T15:03:29.215Z,0.40
2023-02-17T15:05:56.023Z,0.60
2023-02-17T15:08:33.807Z,0.50
2023-02-17T15:11:01.382Z,0.30
2023-02-17T15:13:28.096Z,0.30
2023-02-17T15:15:54.878Z,0.50
2023-02-17T15:18:21.886Z,0.60
2023-02-17T15:20:51.396Z,0.80
2023-02-17T15:23:23.730Z,0.40
2023-02-17T15:25:50.998Z,0.38
2023-02-17T15:28:19.721Z,0.30
2023-02-17T15:30:54.332Z,0.38
2023-02-17T15:33:23.597Z,0.20
2023-02-17T15:35:53.645Z,0.40
2023-02-17T15:38:21.337Z,0.40
2023-02-17T15:40:48.276Z,0.47
2023-02-17T15:43:21.825Z,0.20
2023-02-17T15:45:49.352Z,0.28
2023-02-17T15:48:27.328Z,0.40
2023-02-17T15:50:54.422Z,0.30
2023-02-17T15:53:21.563Z,0.70
2023-02-17T15:55:49.062Z,0.30
2023-02-17T15:58:21.151Z,0.40
2023-02-17T16:00:50.244Z,0.30
2023-02-17T16:03:17.777Z,0.28
2023-02-17T16:05:45.133Z,0.32
2023-02-17T16:08:12.067Z,0.40
2023-02-17T16:10:42.061Z,0.30
2023-02-17T16:13:14.563Z,0.40
2023-02-17T16:15:42.091Z,0.40
2023-02-17T16:18:21.538Z,0.30
2023-02-17T16:20:48.477Z,0.50
2023-02-17T16:23:15.414Z,0.35
2023-02-17T16:25:44.487Z,0.52
2023-02-17T16:28:20.881Z,0.20
2023-02-17T16:30:49.431Z,0.30
2023-02-17T16:33:17.593Z,0.20
2023-02-17T16:35:44.428Z,0.20
2023-02-17T16:38:23.581Z,0.32
2023-02-17T16:40:52.364Z,0.40
2023-02-17T16:43:23.691Z,0.65
2023-02-17T16:45:57.225Z,0.22
2023-02-17T16:48:26.756Z,0.30
2023-02-17T16:50:53.670Z,0.38
2023-02-17T16:53:20.846Z,0.33
2023-02-17T16:55:48.164Z,0.40
2023-02-17T16:58:19.280Z,0.60
2023-02-17T17:00:47.836Z,0.38
2023-02-17T17:03:15.221Z,0.40
2023-02-17T17:05:42.846Z,0.40
2023-02-17T17:08:16.028Z,0.17
2023-02-17T17:10:45.009Z,0.30
2023-02-17T17:13:12.333Z,0.40
2023-02-17T17:15:43.239Z,0.40
2023-02-17T17:18:15.610Z,0.30
2023-02-17T17:20:42.267Z,0.40
2023-02-17T17:23:12.289Z,0.70
2023-02-17T17:25:42.328Z,0.30
2023-02-17T17:28:13.398Z,0.40
2023-02-17T17:30:40.129Z,0.50
2023-02-17T17:33:07.189Z,0.30
2023-02-17T17:35:34.209Z,0.20
2023-02-17T17:38:01.153Z,0.50
2023-02-17T17:40:31.723Z,0.63
2023-02-17T17:43:00.008Z,0.47
2023-02-17T17:45:26.909Z,0.40
2023-02-17T17:47:53.801Z,0.50
2023-02-17T17:50:23.834Z,0.43
2023-02-17T17:52:50.900Z,0.63
2023-02-17T17:55:17.889Z,0.30
2023-02-17T17:57:44.647Z,0.30
2023-02-17T18:00:14.579Z,0.50
2023-02-17T18:02:41.306Z,0.40
2023-02-17T18:05:08.362Z,0.50
2023-02-17T18:07:38.600Z,0.50
2023-02-17T18:10:09.380Z,0.25
2023-02-17T18:12:36.726Z,0.40
2023-02-17T18:15:05.312Z,0.40
2023-02-17T18:17:35.349Z,0.30
2023-02-17T18:20:02.595Z,0.40
2023-02-17T18:22:29.276Z,0.32
2023-02-17T18:24:55.959Z,0.30
2023-02-17T18:27:22.892Z,0.45
2023-02-17T18:29:56.354Z,0.20
2023-02-17T18:32:24.340Z,0.40
2023-02-17T18:34:51.784Z,0.30
2023-02-17T18:37:18.535Z,0.30
2023-02-17T18:39:47.528Z,0.30
2023-02-17T18:42:14.357Z,0.30
2023-02-17T18:44:43.421Z,0.40
2023-02-17T18:47:10.205Z,0.30
2023-02-17T18:49:37.400Z,0.40
2023-02-17T18:52:04.392Z,0.45
2023-02-17T18:54:33.705Z,0.30
2023-02-17T18:57:03.316Z,0.75
2023-02-17T18:59:31.889Z,0.50
2023-02-17T19:01:58.565Z,0.70
2023-02-17T19:04:28.039Z,0.47
2023-02-17T19:06:54.724Z,0.52
2023-02-17T19:09:21.409Z,0.50
2023-02-17T19:11:48.060Z,0.50
2023-02-17T19:14:14.724Z,0.50
2023-02-17T19:16:41.434Z,0.68
2023-02-17T19:19:08.174Z,0.60
2023-02-17T19:21:36.410Z,0.50
2023-02-17T19:24:03.351Z,0.45
2023-02-17T19:26:30.070Z,0.60
2023-02-17T19:28:58.822Z,0.50
2023-02-17T19:31:26.098Z,0.40
2023-02-17T19:33:53.031Z,0.57
2023-02-17T19:36:23.379Z,0.40
2023-02-17T19:38:51.097Z,0.40
2023-02-17T19:41:18.328Z,0.50
2023-02-17T19:43:45.438Z,0.40
2023-02-17T19:46:18.660Z,0.43
2023-02-17T19:48:45.560Z,0.50
2023-02-17T19:51:16.284Z,0.50
2023-02-17T19:53:43.689Z,0.40
2023-02-17T19:56:14.579Z,0.50
2023-02-17T19:58:42.984Z,0.60
2023-02-17T20:01:22.928Z,0.82
2023-02-17T20:03:50.332Z,0.50
2023-02-17T20:06:21.890Z,0.70
2023-02-17T20:08:54.103Z,0.52
2023-02-17T20:11:21.211Z,0.55
2023-02-17T20:13:50.406Z,0.50
2023-02-17T20:16:18.497Z,0.50
2023-02-17T20:18:47.892Z,0.77
2023-02-17T20:21:20.073Z,0.50
2023-02-17T20:23:47.080Z,0.80
2023-02-17T20:26:21.736Z,0.60
2023-02-17T20:28:49.560Z,0.70
2023-02-17T20:31:20.067Z,0.60
2023-02-17T20:33:47.506Z,0.60
2023-02-17T20:36:14.280Z,0.65
2023-02-17T20:38:41.410Z,0.60
2023-02-17T20:41:09.316Z,0.60
2023-02-17T20:43:38.214Z,0.52
2023-02-17T20:46:05.592Z,0.82
2023-02-17T20:48:32.726Z,0.75
2023-02-17T20:50:59.586Z,0.82
2023-02-17T20:53:26.885Z,0.80
2023-02-17T20:55:53.723Z,0.90
2023-02-17T20:58:20.643Z,0.60
2023-02-17T21:00:48.615Z,0.50
2023-02-17T21:03:18.486Z,0.60
2023-02-17T21:05:48.109Z,0.87
2023-02-17T21:08:14.805Z,0.80
2023-02-17T21:10:41.501Z,0.60
2023-02-17T21:13:08.209Z,0.70
2023-02-17T21:15:34.973Z,0.75
2023-02-17T21:18:01.715Z,0.55
2023-02-17T21:20:28.450Z,0.70
2023-02-17T21:22:55.276Z,1.00
2023-02-17T21:25:21.975Z,0.70
2023-02-17T21:27:51.019Z,0.70
2023-02-17T21:30:18.723Z,0.55
2023-02-17T21:32:45.434Z,0.80
2023-02-17T21:35:14.537Z,0.68
2023-02-17T21:37:41.723Z,0.80
2023-02-17T21:40:09.756Z,0.68
2023-02-17T21:42:58.421Z,0.50
2023-02-17T21:45:25.672Z,0.73
2023-02-17T21:47:52.437Z,0.85
2023-02-17T21:50:19.672Z,0.50
2023-02-17T21:52:46.342Z,0.80
2023-02-17T21:55:13.311Z,0.82
2023-02-17T21:57:39.992Z,0.70
2023-02-17T22:00:10.921Z,0.75
2023-02-17T22:02:37.611Z,0.70
2023-02-17T22:05:04.570Z,0.60
2023-02-17T22:07:31.223Z,0.70
2023-02-17T22:09:59.613Z,0.80
2023-02-17T22:12:29.813Z,0.50
2023-02-17T22:14:56.623Z,0.93
2023-02-17T22:17:23.384Z,0.50
2023-02-17T22:19:50.035Z,0.60
2023-02-17T22:22:16.728Z,1.08
2023-02-17T22:24:43.719Z,0.60
2023-02-17T22:27:10.537Z,0.90
2023-02-17T22:29:37.287Z,0.70
2023-02-17T22:32:04.431Z,0.60
2023-02-17T22:34:31.390Z,0.82
2023-02-17T22:37:00.499Z,0.77
2023-02-17T22:39:30.047Z,1.00
2023-02-17T22:41:56.760Z,0.98
2023-02-17T22:44:23.418Z,1.00
2023-02-17T22:46:50.119Z,0.60
2023-02-17T22:49:16.873Z,0.60
2023-02-17T22:51:43.597Z,0.63
2023-02-17T22:54:10.379Z,0.80
2023-02-17T22:56:37.344Z,0.65
2023-02-17T22:59:05.506Z,0.63
2023-02-17T23:01:34.935Z,0.50
2023-02-17T23:04:02.281Z,0.65
2023-02-17T23:06:34.827Z,0.93
2023-02-17T23:09:02.722Z,0.77
2023-02-17T23:11:50.743Z,0.60
2023-02-17T23:14:26.421Z,0.80
2023-02-17T23:16:56.105Z,0.57
2023-02-17T23:19:23.843Z,0.50
2023-02-17T23:21:56.667Z,0.73
2023-02-17T23:24:25.126Z,0.50
2023-02-17T23:26:52.875Z,0.73
2023-02-17T23:29:19.788Z,0.50
2023-02-17T23:31:46.621Z,0.70
2023-02-17T23:34:14.867Z,0.40
2023-02-17T23:36:43.283Z,0.70
2023-02-17T23:39:11.027Z,0.70
2023-02-17T23:41:40.892Z,0.70
2023-02-17T23:44:10.041Z,0.77
2023-02-17T23:46:37.546Z,0.50
2023-02-17T23:49:04.346Z,0.50
2023-02-17T23:51:31.046Z,0.85
2023-02-17T23:53:57.777Z,0.50
2023-02-17T23:56:29.522Z,0.80
2023-02-17T23:59:00.037Z,0.52
